Time;durP1;ratioP1;P1;durP2;ratioP2;P2;SDS_P1;SDS_P2;PMS_P1;PMS_P2;Temp;Humidity;BMP_temperature;BMP_pressure;BME280_temperature;BME280_humidity;BME280_pressure;Samples;Min_cycle;Max_cycle;Signal;HPM_P1;HPM_P2
2021/12/11 07:22:43;;;;;;;;;2.25;0.50;;;;;-143.39;100.00;63593.47;5108985;22;8619;-86
2021/12/11 07:25:32;;;;;;;;;3.75;1.25;;;;;-143.39;100.00;63593.47;5080301;28;8771;-87
2021/12/11 07:28:03;;;;;;;;;4.75;2.00;;;;;-143.39;100.00;63593.47;5038571;28;8919;-84
2021/12/11 07:45:15;;;;;;;;;;;;;;;;;;;;;
2021/12/11 07:51:51;;;;;;;;;;;;;;;;;;;;;
2021/12/11 07:54:24;;;;;;;;;;;;;;;;;;;;;
2021/12/11 07:56:52;;;;;;;;;10.00;2.00;;;;;-143.39;100.00;63593.47;5062025;28;35935;-84
2021/12/11 07:59:31;;;;;;;;;3.00;3.00;;;;;-143.39;100.00;63593.47;5077509;28;8811;-83
2021/12/11 08:02:04;;;;;;;;;1.25;1.25;;;;;-143.39;100.00;63593.47;5071867;28;8792;-83
2021/12/11 08:04:30;;;;;;;;;5.25;1.25;;;;;-143.39;100.00;63593.47;5074257;28;8799;-84
2021/12/11 08:06:56;;;;;;;;;2.00;2.00;;;;;-143.39;100.00;63593.47;5076747;28;8811;-85
2021/12/11 08:09:34;;;;;;;;;5.25;2.00;;;;;-143.39;100.00;63593.47;5076977;28;8898;-85
2021/12/11 08:12:30;;;;;;;;;10.00;5.00;;;;;-143.39;100.00;63593.47;5054775;28;8815;-85
2021/12/11 08:20:59;;;;;;;;;4.25;2.50;;;;;-143.39;100.00;63593.47;4875771;26;8843;-85
2021/12/11 08:23:27;;;;;;;;;5.25;3.00;;;;;-143.39;100.00;63593.47;5057356;28;8784;-84
2021/12/11 08:25:53;;;;;;;;;3.00;3.00;;;;;-143.39;100.00;63593.47;5040823;28;8771;-83
2021/12/11 08:35:34;;;;;;;;;12.50;5.00;;;;;-143.39;100.00;63593.47;4919756;29;8751;-87
2021/12/11 08:38:01;;;;;;;;;6.00;4.00;;;;;-143.39;100.00;63593.47;4932192;28;8788;-84
2021/12/11 08:47:29;;;;;;;;;5.25;3.00;;;;;-143.39;100.00;63593.47;4947178;28;8807;-86
2021/12/11 08:50:34;;;;;;;;;6.50;3.00;;;;;-143.39;100.00;63593.47;4967439;28;9909;-86
2021/12/11 08:53:49;;;;;;;;;;;;;;;;;;;;;
2021/12/11 08:56:47;;;;;;;;;;;;;;;;;;;;;
2021/12/11 08:59:29;;;;;;;;;;;;;;;;;;;;;
2021/12/11 09:02:48;;;;;;;;;5.00;5.00;;;;;-143.39;100.00;63593.47;5055948;28;36103;-87
2021/12/11 09:06:01;;;;;;;;;;;;;;;;;;;;;
2021/12/11 09:09:09;;;;;;;;;;;;;;;;;;;;;
2021/12/11 09:14:55;;;;;;;;;;;;;;;;;;;;;
2021/12/11 09:21:54;;;;;;;;;;;;;;;;;;;;;
2021/12/11 09:24:50;;;;;;;;;;;;;;;;;;;;;
2021/12/11 09:27:31;;;;;;;;;7.75;4.25;;;;;-143.39;100.00;63593.47;5051261;28;35491;-88
2021/12/11 09:30:24;;;;;;;;;;;;;;;;;;;;;
2021/12/11 09:33:13;;;;;;;;;5.00;4.75;;;;;-143.39;100.00;63593.47;5058243;28;35817;-87
2021/12/11 09:49:58;;;;;;;;;7.00;3.00;;;;;-143.39;100.00;63593.47;5157650;22;8831;-84
2021/12/11 09:52:30;;;;;;;;;7.75;3.00;;;;;-143.39;100.00;63593.47;5068076;28;8792;-85
2021/12/11 09:55:10;;;;;;;;;4.25;3.00;;;;;-143.39;100.00;63593.47;5074402;28;8751;-87
2021/12/11 09:57:52;;;;;;;;;7.00;6.00;;;;;-143.39;100.00;63593.47;5070007;28;8792;-86
2021/12/11 10:00:25;;;;;;;;;6.25;3.00;;;;;-143.39;100.00;63593.47;5037140;28;8952;-87
2021/12/11 10:02:51;;;;;;;;;13.00;5.50;;;;;-143.39;100.00;63593.47;5036357;28;8809;-86
2021/12/11 10:05:35;;;;;;;;;6.00;3.50;;;;;-143.39;100.00;63593.47;5054737;28;8830;-87
2021/12/11 10:11:16;;;;;;;;;6.25;3.25;;;;;-143.39;100.00;63593.47;5055711;28;8806;-87
2021/12/11 10:13:52;;;;;;;;;8.75;4.25;;;;;-143.39;100.00;63593.47;5044090;28;8804;-87
2021/12/11 10:16:21;;;;;;;;;6.50;2.75;;;;;-143.39;100.00;63593.47;5056298;28;8940;-86
2021/12/11 10:18:48;;;;;;;;;6.75;5.50;;;;;-143.39;100.00;63593.47;5055884;28;8802;-87
2021/12/11 10:21:52;;;;;;;;;13.75;3.50;;;;;-143.39;100.00;63593.47;5054264;28;8822;-87
2021/12/11 10:24:32;;;;;;;;;6.75;4.00;;;;;-143.39;100.00;63593.47;5036340;28;8831;-87
2021/12/11 10:27:00;;;;;;;;;11.00;6.00;;;;;-143.39;100.00;63593.47;5032780;28;8822;-86
2021/12/11 10:51:39;;;;;;;;;;;;;;;;;;;;;
2021/12/11 11:33:48;;;;;;;;;11.50;6.00;;;;;-143.39;100.00;63593.47;1164766;26;10209;-86
2021/12/11 11:39:33;;;;;;;;;10.25;7.25;;;;;-143.39;100.00;63593.47;5597104;22;9749;-84
2021/12/11 11:46:26;;;;;;;;;15.50;6.00;;;;;-143.39;100.00;63593.47;5010380;28;8735;-86
2021/12/11 11:48:56;;;;;;;;;15.25;8.50;;;;;-143.39;100.00;63593.47;5122049;22;8836;-85
2021/12/11 11:51:27;;;;;;;;;8.50;5.50;;;;;-143.39;100.00;63593.47;5074249;28;9698;-84
2021/12/11 12:07:47;;;;;;;;;;;;;;;;;;;;;
2021/12/11 12:14:17;;;;;;;;;;;;;;;;;;;;;
2021/12/11 12:17:18;;;;;;;;;11.50;7.00;;;;;-143.39;100.00;63593.47;4969771;28;35953;-84
2021/12/11 12:27:21;;;;;;;;;;;;;;;;;;;;;
2021/12/11 12:30:38;;;;;;;;;13.00;9.75;;;;;-143.39;100.00;63593.47;4975657;28;35946;-84
2021/12/11 12:33:37;;;;;;;;;;;;;;;;;;;;;
2021/12/11 12:36:39;;;;;;;;;;;;;;;;;;;;;
2021/12/11 12:43:08;;;;;;;;;12.00;6.75;;;;;-143.39;100.00;63593.47;5039931;28;8797;-84
2021/12/11 12:45:59;;;;;;;;;13.50;8.25;;;;;-143.39;100.00;63593.47;5030913;28;8812;-84
2021/12/11 12:52:44;;;;;;;;;;;;;;;;;;;;;
2021/12/11 13:02:46;;;;;;;;;6.25;6.25;;;;;-143.39;100.00;63593.47;5043781;28;9750;-85
2021/12/11 13:06:24;;;;;;;;;;;;;;;;;;;;;
2021/12/11 13:09:32;;;;;;;;;;;;;;;;;;;;;
2021/12/11 13:12:31;;;;;;;;;12.75;7.75;;;;;-143.39;100.00;63593.47;5049597;28;35444;-85
2021/12/11 13:19:18;;;;;;;;;;;;;;;;;;;;;
2021/12/11 13:33:05;;;;;;;;;;;;;;;;;;;;;
2021/12/11 14:06:26;;;;;;;;;;;;;;;;;;;;;
2021/12/11 14:09:35;;;;;;;;;;;;;;;;;;;;;
2021/12/11 14:12:44;;;;;;;;;;;;;;;;;;;;;
2021/12/11 14:16:09;;;;;;;;;;;;;;;;;;;;;
2021/12/11 14:19:43;;;;;;;;;;;;;;;;;;;;;
2021/12/11 14:26:23;;;;;;;;;;;;;;;;;;;;;
2021/12/11 14:32:34;;;;;;;;;;;;;;;;;;;;;
2021/12/11 17:07:52;;;;;;;;;16.50;13.75;;;;;-143.39;100.00;63593.47;5074720;28;8787;-90
2021/12/11 17:16:31;;;;;;;;;21.50;12.75;;;;;-143.39;100.00;63593.47;5076839;28;8894;-90
2021/12/11 17:19:11;;;;;;;;;;;;;;;;;;;;;
2021/12/11 17:22:41;;;;;;;;;;;;;;;;;;;;;
2021/12/11 17:29:27;;;;;;;;;13.00;12.00;;;;;-143.39;100.00;63593.47;4917539;28;8800;-90
2021/12/11 18:08:59;;;;;;;;;19.25;19.00;;;;;-143.39;100.00;63593.47;5056982;28;8797;-91
2021/12/11 18:11:33;;;;;;;;;31.00;21.50;;;;;-143.39;100.00;63593.47;5073677;28;9758;-93
2021/12/11 18:14:06;;;;;;;;;25.00;21.75;;;;;-143.39;100.00;63593.47;5061600;28;8733;-92
2021/12/11 18:16:49;;;;;;;;;27.25;23.75;;;;;-143.39;100.00;63593.47;5042601;28;8823;-91
2021/12/11 18:19:31;;;;;;;;;29.50;21.25;;;;;-143.39;100.00;63593.47;5061900;28;8909;-90
2021/12/11 18:22:01;;;;;;;;;27.50;25.75;;;;;-143.39;100.00;63593.47;5069311;28;8824;-91
2021/12/11 18:24:28;;;;;;;;;33.75;26.50;;;;;-143.39;100.00;63593.47;5056800;28;8740;-91
2021/12/11 18:26:58;;;;;;;;;22.25;19.50;;;;;-143.39;100.00;63593.47;5056038;28;8799;-91
2021/12/11 18:29:28;;;;;;;;;31.25;23.00;;;;;-143.39;100.00;63593.47;5055806;28;8818;-91
2021/12/11 18:32:03;;;;;;;;;25.00;20.00;;;;;-143.39;100.00;63593.47;5041862;28;8729;-88
2021/12/11 18:34:29;;;;;;;;;31.50;25.50;;;;;-143.39;100.00;63593.47;5044157;28;8831;-91
2021/12/11 18:36:58;;;;;;;;;27.75;21.00;;;;;-143.39;100.00;63593.47;5043723;28;8936;-89
2021/12/11 18:39:28;;;;;;;;;28.75;25.00;;;;;-143.39;100.00;63593.47;5062385;28;8753;-90
2021/12/11 18:42:10;;;;;;;;;30.50;24.00;;;;;-143.39;100.00;63593.47;5043459;28;8737;-91
2021/12/11 18:44:38;;;;;;;;;25.00;22.00;;;;;-143.39;100.00;63593.47;5040340;28;8832;-90
2021/12/11 18:47:06;;;;;;;;;35.25;22.75;;;;;-143.39;100.00;63593.47;5062272;28;8756;-88
2021/12/11 18:49:32;;;;;;;;;30.00;27.00;;;;;-143.39;100.00;63593.47;5060710;28;8851;-90
2021/12/11 18:52:05;;;;;;;;;28.00;21.50;;;;;-143.39;100.00;63593.47;5066843;28;8783;-91
2021/12/11 18:54:33;;;;;;;;;30.25;24.25;;;;;-143.39;100.00;63593.47;5060724;28;8808;-90
2021/12/11 18:57:04;;;;;;;;;22.50;19.50;;;;;-143.39;100.00;63593.47;5061248;28;8764;-91
2021/12/11 18:59:32;;;;;;;;;34.25;24.25;;;;;-143.39;100.00;63593.47;5059807;28;8847;-90
2021/12/11 19:02:09;;;;;;;;;27.50;22.25;;;;;-143.39;100.00;63593.47;5055946;28;8804;-91
2021/12/11 19:04:39;;;;;;;;;34.50;24.25;;;;;-143.39;100.00;63593.47;5059817;28;8784;-91
2021/12/11 19:07:08;;;;;;;;;32.50;26.00;;;;;-143.39;100.00;63593.47;5045995;28;8894;-90
2021/12/11 19:09:34;;;;;;;;;28.25;24.50;;;;;-143.39;100.00;63593.47;5046206;28;8803;-90
2021/12/11 19:12:08;;;;;;;;;38.00;22.50;;;;;-143.39;100.00;63593.47;5066551;28;9496;-91
2021/12/11 19:14:36;;;;;;;;;33.00;23.00;;;;;-143.39;100.00;63593.47;5047768;28;8889;-90
2021/12/11 19:17:04;;;;;;;;;28.25;24.50;;;;;-143.39;100.00;63593.47;5067770;28;8811;-90
2021/12/11 19:19:29;;;;;;;;;30.00;23.75;;;;;-143.39;100.00;63593.47;5068310;28;8764;-90
2021/12/11 19:22:04;;;;;;;;;30.25;24.00;;;;;-143.39;100.00;63593.47;5050056;28;8809;-91
2021/12/11 19:24:30;;;;;;;;;29.00;26.25;;;;;-143.39;100.00;63593.47;5085771;28;8783;-91
2021/12/11 19:27:00;;;;;;;;;37.50;24.50;;;;;-143.39;100.00;63593.47;5070259;28;9138;-90
2021/12/11 19:29:38;;;;;;;;;37.00;26.75;;;;;-143.39;100.00;63593.47;5089469;28;8828;-90
2021/12/11 19:32:08;;;;;;;;;30.75;28.25;;;;;-143.39;100.00;63593.47;5081660;28;8764;-90
2021/12/11 19:34:34;;;;;;;;;33.25;24.25;;;;;-143.39;100.00;63593.47;5055642;28;8816;-91
2021/12/11 19:37:01;;;;;;;;;31.25;25.75;;;;;-143.39;100.00;63593.47;5055791;28;8892;-91
2021/12/11 19:39:32;;;;;;;;;34.00;26.25;;;;;-143.39;100.00;63593.47;5052129;28;8735;-91
2021/12/11 19:42:00;;;;;;;;;38.50;26.75;;;;;-143.39;100.00;63593.47;5063382;28;8823;-91
2021/12/11 19:44:27;;;;;;;;;31.00;26.50;;;;;-143.39;100.00;63593.47;5053282;28;8825;-90
2021/12/11 19:46:54;;;;;;;;;39.00;27.25;;;;;-143.39;100.00;63593.47;5048433;28;8731;-91
2021/12/11 19:49:20;;;;;;;;;36.50;28.50;;;;;-143.39;100.00;63593.47;5051310;28;9642;-90
2021/12/11 19:51:50;;;;;;;;;44.25;27.25;;;;;-143.39;100.00;63593.47;5065185;28;8847;-91
2021/12/11 19:54:20;;;;;;;;;36.25;27.25;;;;;-143.39;100.00;63593.47;5074515;28;8782;-91
2021/12/11 19:56:49;;;;;;;;;32.50;26.50;;;;;-143.39;100.00;63593.47;5066276;28;8785;-92
2021/12/11 19:59:22;;;;;;;;;30.25;28.75;;;;;-143.39;100.00;63593.47;5052598;28;8781;-91
2021/12/11 20:01:51;;;;;;;;;30.50;24.25;;;;;-143.39;100.00;63593.47;5065831;28;8718;-91
2021/12/11 20:04:18;;;;;;;;;30.75;27.50;;;;;-143.39;100.00;63593.47;5058176;28;8794;-90
2021/12/11 20:06:46;;;;;;;;;32.00;25.75;;;;;-143.39;100.00;63593.47;5049819;28;8802;-89
2021/12/11 20:09:27;;;;;;;;;32.50;28.25;;;;;-143.39;100.00;63593.47;5073104;28;8889;-89
2021/12/11 20:11:58;;;;;;;;;30.50;22.00;;;;;-143.39;100.00;63593.47;5069627;28;8725;-89
2021/12/11 20:14:24;;;;;;;;;32.25;23.25;;;;;-143.39;100.00;63593.47;5044408;28;8761;-91
2021/12/11 20:16:50;;;;;;;;;33.25;24.00;;;;;-143.39;100.00;63593.47;5057927;28;8816;-92
2021/12/11 20:19:26;;;;;;;;;30.50;25.25;;;;;-143.39;100.00;63593.47;5072707;28;9760;-91
2021/12/11 20:21:56;;;;;;;;;30.75;23.00;;;;;-143.39;100.00;63593.47;5050532;28;8745;-90
2021/12/11 20:24:31;;;;;;;;;26.50;23.50;;;;;-143.39;100.00;63593.47;5054082;28;8787;-89
2021/12/11 20:26:57;;;;;;;;;31.25;25.00;;;;;-143.39;100.00;63593.47;5058557;28;9666;-91
2021/12/11 20:29:40;;;;;;;;;33.25;26.25;;;;;-143.39;100.00;63593.47;5070718;28;8864;-87
2021/12/11 20:32:15;;;;;;;;;27.00;22.00;;;;;-143.39;100.00;63593.47;5052369;28;8806;-90
2021/12/11 20:34:55;;;;;;;;;27.75;22.00;;;;;-143.39;100.00;63593.47;5044238;28;8796;-90
2021/12/11 20:37:22;;;;;;;;;31.00;22.75;;;;;-143.39;100.00;63593.47;5056003;28;8797;-89
2021/12/11 20:40:01;;;;;;;;;27.25;22.00;;;;;-143.39;100.00;63593.47;5057986;28;8935;-90
2021/12/11 20:43:12;;;;;;;;;;;;;;;;;;;;;
2021/12/11 20:46:12;;;;;;;;;31.00;25.00;;;;;-143.39;100.00;63593.47;5076808;28;9759;-89
2021/12/11 20:49:19;;;;;;;;;27.75;23.50;;;;;-143.39;100.00;63593.47;5063805;28;8723;-91
2021/12/11 20:52:20;;;;;;;;;26.25;23.50;;;;;-143.39;100.00;63593.47;5067193;28;8746;-91
2021/12/11 20:55:34;;;;;;;;;35.50;22.00;;;;;-143.39;100.00;63593.47;5060226;28;8789;-91
2021/12/11 21:03:45;;;;;;;;;18.00;18.00;;;;;-143.39;100.00;63593.47;5027262;28;8806;-88
2021/12/11 21:06:35;;;;;;;;;34.25;26.50;;;;;-143.39;100.00;63593.47;5037538;28;8840;-90
2021/12/11 21:09:14;;;;;;;;;29.50;18.00;;;;;-143.39;100.00;63593.47;5053288;28;8871;-91
2021/12/11 21:11:49;;;;;;;;;22.00;18.00;;;;;-143.39;100.00;63593.47;5050400;28;8917;-91
2021/12/11 21:14:17;;;;;;;;;29.75;17.50;;;;;-143.39;100.00;63593.47;5043937;28;8819;-92
2021/12/11 21:17:05;;;;;;;;;18.00;16.75;;;;;-143.39;100.00;63593.47;5032071;28;8815;-91
2021/12/11 21:19:40;;;;;;;;;24.00;20.00;;;;;-143.39;100.00;63593.47;5040603;28;8827;-90
2021/12/11 21:22:42;;;;;;;;;;;;;;;;;;;;;
2021/12/11 21:25:31;;;;;;;;;17.25;14.00;;;;;-143.39;100.00;63593.47;5039995;28;37065;-91
2021/12/11 21:28:04;;;;;;;;;27.75;17.50;;;;;-143.39;100.00;63593.47;5059877;28;8780;-91
2021/12/11 21:33:40;;;;;;;;;29.50;17.00;;;;;-143.39;100.00;63593.47;5044491;28;8997;-91
2021/12/11 21:36:10;;;;;;;;;29.00;21.50;;;;;-143.39;100.00;63593.47;5041742;28;8798;-90
2021/12/11 21:38:58;;;;;;;;;25.00;17.00;;;;;-143.39;100.00;63593.47;5044389;28;8925;-91
2021/12/11 21:41:32;;;;;;;;;24.50;17.00;;;;;-143.39;100.00;63593.47;5049579;28;8751;-91
2021/12/11 21:44:22;;;;;;;;;28.50;21.25;;;;;-143.39;100.00;63593.47;5042775;28;8823;-90
2021/12/11 21:46:53;;;;;;;;;27.00;19.25;;;;;-143.39;100.00;63593.47;5026032;28;8864;-92
2021/12/11 21:49:29;;;;;;;;;23.00;20.25;;;;;-143.39;100.00;63593.47;5034001;28;8960;-92
2021/12/11 21:52:01;;;;;;;;;26.25;17.75;;;;;-143.39;100.00;63593.47;5025140;28;8747;-92
2021/12/11 21:54:38;;;;;;;;;28.75;19.25;;;;;-143.39;100.00;63593.47;5046632;28;8794;-91
2021/12/11 21:57:06;;;;;;;;;24.00;18.50;;;;;-143.39;100.00;63593.47;5030464;28;8854;-92
2021/12/11 21:59:38;;;;;;;;;18.75;18.75;;;;;-143.39;100.00;63593.47;5047762;28;8915;-89
2021/12/11 22:02:08;;;;;;;;;23.25;18.00;;;;;-143.39;100.00;63593.47;5029127;28;8819;-90
2021/12/11 22:04:39;;;;;;;;;24.50;22.50;;;;;-143.39;100.00;63593.47;5056988;28;8799;-91
2021/12/11 22:07:12;;;;;;;;;26.00;19.00;;;;;-143.39;100.00;63593.47;5054465;28;8815;-91
2021/12/11 22:09:40;;;;;;;;;20.50;17.25;;;;;-143.39;100.00;63593.47;5057687;28;8815;-90
2021/12/11 22:12:12;;;;;;;;;23.00;17.25;;;;;-143.39;100.00;63593.47;5051502;28;8813;-90
2021/12/11 22:14:40;;;;;;;;;27.50;22.00;;;;;-143.39;100.00;63593.47;5047377;28;9603;-90
2021/12/11 22:17:11;;;;;;;;;25.50;19.75;;;;;-143.39;100.00;63593.47;5057196;28;8768;-90
2021/12/11 22:19:41;;;;;;;;;26.75;18.75;;;;;-143.39;100.00;63593.47;5055913;28;8957;-90
2021/12/11 22:22:12;;;;;;;;;26.00;18.00;;;;;-143.39;100.00;63593.47;5037952;28;8778;-90
2021/12/11 22:24:39;;;;;;;;;25.50;18.50;;;;;-143.39;100.00;63593.47;5043926;28;8797;-89
2021/12/11 22:27:11;;;;;;;;;30.50;23.00;;;;;-143.39;100.00;63593.47;5038565;28;8803;-90
2021/12/11 22:29:44;;;;;;;;;29.50;20.50;;;;;-143.39;100.00;63593.47;5055808;28;8831;-90
2021/12/11 22:32:11;;;;;;;;;26.75;22.25;;;;;-143.39;100.00;63593.47;5044722;28;8797;-91
2021/12/11 22:34:38;;;;;;;;;24.50;18.00;;;;;-143.39;100.00;63593.47;5038233;28;8822;-90
2021/12/11 22:37:10;;;;;;;;;23.00;17.00;;;;;-143.39;100.00;63593.47;5056561;28;9654;-91
2021/12/11 22:39:42;;;;;;;;;27.25;20.25;;;;;-143.39;100.00;63593.47;5056033;28;8923;-91
2021/12/11 22:42:13;;;;;;;;;20.75;17.75;;;;;-143.39;100.00;63593.47;5055883;28;8821;-91
2021/12/11 22:44:42;;;;;;;;;23.00;17.75;;;;;-143.39;100.00;63593.47;5056630;28;9736;-89
2021/12/11 22:47:15;;;;;;;;;29.25;22.00;;;;;-143.39;100.00;63593.47;5047050;28;8828;-90
2021/12/11 22:49:46;;;;;;;;;34.50;22.50;;;;;-143.39;100.00;63593.47;5047888;28;8825;-90
2021/12/11 22:52:14;;;;;;;;;24.50;19.50;;;;;-143.39;100.00;63593.47;5044185;28;8799;-91
2021/12/11 22:54:46;;;;;;;;;30.75;21.25;;;;;-143.39;100.00;63593.47;5055250;28;8791;-91
2021/12/11 22:57:19;;;;;;;;;22.75;18.25;;;;;-143.39;100.00;63593.47;5037797;28;8799;-91
2021/12/11 22:59:46;;;;;;;;;24.50;18.00;;;;;-143.39;100.00;63593.47;5050230;28;8819;-90
2021/12/11 23:02:20;;;;;;;;;22.00;17.25;;;;;-143.39;100.00;63593.47;5051361;28;8773;-91
2021/12/11 23:05:09;;;;;;;;;27.25;20.75;;;;;-143.39;100.00;63593.47;5050341;28;8799;-92
2021/12/11 23:07:43;;;;;;;;;24.75;17.00;;;;;-143.39;100.00;63593.47;5047177;28;8817;-91
2021/12/11 23:10:23;;;;;;;;;24.00;19.00;;;;;-143.39;100.00;63593.47;5043968;28;8839;-91
2021/12/11 23:12:56;;;;;;;;;18.75;13.00;;;;;-143.39;100.00;63593.47;5047189;28;8758;-91
2021/12/11 23:15:40;;;;;;;;;26.75;18.75;;;;;-143.39;100.00;63593.47;5030274;28;8826;-91
2021/12/11 23:18:21;;;;;;;;;24.25;17.00;;;;;-143.39;100.00;63593.47;5043409;28;8794;-91
2021/12/11 23:20:53;;;;;;;;;22.00;17.00;;;;;-143.39;100.00;63593.47;5055108;28;8919;-91
2021/12/11 23:23:35;;;;;;;;;16.50;15.75;;;;;-143.39;100.00;63593.47;5056805;28;8787;-91
2021/12/11 23:26:09;;;;;;;;;20.75;16.50;;;;;-143.39;100.00;63593.47;5045176;28;8799;-90
2021/12/11 23:28:47;;;;;;;;;22.25;16.75;;;;;-143.39;100.00;63593.47;5056485;28;8928;-90
2021/12/11 23:31:19;;;;;;;;;23.00;17.00;;;;;-143.39;100.00;63593.47;5055748;28;8804;-91
2021/12/11 23:34:13;;;;;;;;;17.00;14.25;;;;;-143.39;100.00;63593.47;5054786;28;8781;-90
2021/12/11 23:36:46;;;;;;;;;22.50;14.50;;;;;-143.39;100.00;63593.47;5052953;28;8819;-91
2021/12/11 23:39:23;;;;;;;;;20.75;14.00;;;;;-143.39;100.00;63593.47;5040413;28;8771;-90
2021/12/11 23:41:57;;;;;;;;;28.00;19.00;;;;;-143.39;100.00;63593.47;5062400;28;8883;-91
2021/12/11 23:44:31;;;;;;;;;20.25;17.75;;;;;-143.39;100.00;63593.47;5041389;28;8800;-91
2021/12/11 23:47:08;;;;;;;;;23.00;18.75;;;;;-143.39;100.00;63593.47;5060446;28;8787;-91
2021/12/11 23:49:36;;;;;;;;;19.25;16.50;;;;;-143.39;100.00;63593.47;5059145;28;8904;-90
2021/12/11 23:52:05;;;;;;;;;24.00;17.00;;;;;-143.39;100.00;63593.47;5059050;28;8781;-91
2021/12/11 23:54:39;;;;;;;;;19.25;13.00;;;;;-143.39;100.00;63593.47;5059896;28;8826;-91
2021/12/11 23:57:10;;;;;;;;;17.25;14.50;;;;;-143.39;100.00;63593.47;5048026;28;8904;-87
2021/12/11 23:59:41;;;;;;;;;16.75;12.50;;;;;-143.39;100.00;63593.47;5042033;28;8829;-89
